Time;durP1;ratioP1;P1;durP2;ratioP2;P2;SDS_P1;SDS_P2;PMS_P1;PMS_P2;Temp;Humidity;BMP_temperature;BMP_pressure;BME280_temperature;BME280_humidity;BME280_pressure;Samples;Min_cycle;Max_cycle;Signal;HPM_P1;HPM_P2
2022/05/26 00:01:54;;;;;;;4.43;1.00;;;;;;;;;;5047811;28;20040;-71
2022/05/26 00:04:20;;;;;;;3.35;1.17;;;;;;;;;;5046221;28;20049;-72
2022/05/26 00:06:46;;;;;;;5.07;0.95;;;;;;;;;;5049202;28;20455;-72
2022/05/26 00:09:12;;;;;;;5.47;1.02;;;;;;;;;;5048441;28;20066;-71
2022/05/26 00:11:39;;;;;;;5.45;1.35;;;;;;;;;;5045286;28;20468;-71
2022/05/26 00:14:10;;;;;;;3.63;1.20;;;;;;;;;;5045464;28;20420;-71
2022/05/26 00:16:37;;;;;;;2.95;1.00;;;;;;;;;;5049408;28;20071;-72
2022/05/26 00:19:03;;;;;;;6.07;1.10;;;;;;;;;;5052268;28;20033;-72
2022/05/26 00:21:29;;;;;;;6.07;1.00;;;;;;;;;;5051708;28;20029;-71
2022/05/26 00:23:56;;;;;;;3.63;1.05;;;;;;;;;;5050109;28;20033;-72
2022/05/26 00:26:22;;;;;;;2.15;0.80;;;;;;;;;;5049920;28;20048;-72
2022/05/26 00:28:48;;;;;;;3.95;0.90;;;;;;;;;;5049835;28;20526;-71
2022/05/26 00:31:14;;;;;;;4.32;1.10;;;;;;;;;;5050466;28;20036;-71
2022/05/26 00:33:41;;;;;;;4.07;1.02;;;;;;;;;;5065108;28;20035;-71
2022/05/26 00:36:09;;;;;;;1.52;0.80;;;;;;;;;;5063715;28;20475;-71
2022/05/26 00:38:35;;;;;;;4.35;1.10;;;;;;;;;;5058884;28;20025;-71
2022/05/26 00:41:09;;;;;;;5.88;1.02;;;;;;;;;;5054784;28;20089;-72
2022/05/26 00:43:36;;;;;;;3.53;1.10;;;;;;;;;;5052519;28;20030;-71
2022/05/26 00:46:06;;;;;;;2.50;0.77;;;;;;;;;;5052457;28;20028;-71
2022/05/26 00:48:40;;;;;;;2.55;0.95;;;;;;;;;;5055965;28;20070;-71
2022/05/26 00:51:07;;;;;;;3.55;1.00;;;;;;;;;;5048963;28;20051;-71
2022/05/26 00:53:45;;;;;;;2.72;1.08;;;;;;;;;;5049308;28;20025;-71
2022/05/26 00:56:14;;;;;;;3.75;1.13;;;;;;;;;;5053238;28;20033;-71
2022/05/26 00:58:42;;;;;;;2.75;0.90;;;;;;;;;;5052747;28;20032;-71
2022/05/26 01:01:08;;;;;;;5.75;1.80;;;;;;;;;;5053416;28;20036;-71
2022/05/26 01:03:37;;;;;;;4.35;0.80;;;;;;;;;;5052511;28;20032;-71
2022/05/26 01:06:09;;;;;;;6.47;1.30;;;;;;;;;;5050847;28;20089;-71
2022/05/26 01:08:45;;;;;;;4.30;1.42;;;;;;;;;;5051149;28;20033;-71
2022/05/26 01:11:11;;;;;;;3.75;1.40;;;;;;;;;;5052951;28;20029;-71
2022/05/26 01:13:45;;;;;;;5.70;1.50;;;;;;;;;;5053024;28;20268;-71
2022/05/26 01:16:17;;;;;;;5.00;1.75;;;;;;;;;;5053896;28;20040;-71
2022/05/26 01:19:02;;;;;;;5.90;2.15;;;;;;;;;;5047850;28;20547;-71
2022/05/26 01:21:33;;;;;;;9.30;2.75;;;;;;;;;;5049637;28;20044;-71
2022/05/26 01:24:05;;;;;;;6.22;2.60;;;;;;;;;;5051113;28;20033;-71
2022/05/26 01:26:45;;;;;;;5.90;2.63;;;;;;;;;;5051005;28;20021;-71
2022/05/26 01:29:30;;;;;;;6.50;2.95;;;;;;;;;;5052159;28;20095;-71
2022/05/26 01:32:02;;;;;;;6.78;2.80;;;;;;;;;;5052027;28;20504;-71
2022/05/26 01:34:28;;;;;;;5.35;3.00;;;;;;;;;;5051860;28;20433;-71
2022/05/26 01:36:54;;;;;;;5.15;2.85;;;;;;;;;;5050700;28;20033;-71
2022/05/26 01:39:23;;;;;;;5.80;3.20;;;;;;;;;;5053056;28;20029;-71
2022/05/26 01:41:49;;;;;;;6.03;2.90;;;;;;;;;;5054200;28;20029;-71
2022/05/26 01:44:36;;;;;;;5.57;2.65;;;;;;;;;;5053568;28;20024;-71
2022/05/26 01:47:05;;;;;;;6.50;2.42;;;;;;;;;;5052503;28;20031;-71
2022/05/26 01:49:42;;;;;;;6.07;2.35;;;;;;;;;;5052414;28;20041;-71
2022/05/26 01:52:13;;;;;;;6.20;2.92;;;;;;;;;;5052175;28;20032;-71
2022/05/26 01:54:49;;;;;;;7.53;2.40;;;;;;;;;;5052115;28;20033;-71
2022/05/26 01:57:15;;;;;;;3.50;2.00;;;;;;;;;;5052465;28;20029;-71
2022/05/26 02:00:05;;;;;;;4.00;2.22;;;;;;;;;;5052060;28;20052;-71
2022/05/26 02:02:55;;;;;;;5.55;2.65;;;;;;;;;;5047023;28;20041;-71
2022/05/26 02:05:23;;;;;;;9.02;2.83;;;;;;;;;;5041634;28;20029;-71
2022/05/26 02:07:52;;;;;;;5.80;2.40;;;;;;;;;;5051620;28;20037;-71
2022/05/26 02:10:25;;;;;;;5.93;2.45;;;;;;;;;;5052941;28;20064;-71
2022/05/26 02:12:53;;;;;;;4.75;2.63;;;;;;;;;;5051986;28;20025;-71
2022/05/26 02:15:28;;;;;;;7.43;2.80;;;;;;;;;;5052966;28;20033;-71
2022/05/26 02:18:03;;;;;;;5.80;1.95;;;;;;;;;;5052260;28;20029;-71
2022/05/26 02:20:50;;;;;;;6.35;1.83;;;;;;;;;;5053249;28;20031;-71
2022/05/26 02:23:36;;;;;;;3.47;1.50;;;;;;;;;;5038459;28;20481;-71
2022/05/26 02:26:03;;;;;;;4.40;1.25;;;;;;;;;;5050050;28;20025;-71
2022/05/26 02:29:51;;;;;;;4.85;1.30;;;;;;;;;;5051960;28;20112;-71
2022/05/26 02:31:19;;;;;;;2.80;1.13;;;;;;;;;;5036606;28;20083;-71
2022/05/26 02:33:46;;;;;;;5.57;1.50;;;;;;;;;;5051790;28;20067;-71
2022/05/26 02:36:12;;;;;;;3.92;1.50;;;;;;;;;;5053690;28;20082;-72
2022/05/26 02:38:39;;;;;;;3.17;1.02;;;;;;;;;;5052124;28;20033;-71
2022/05/26 02:41:05;;;;;;;3.75;1.00;;;;;;;;;;5052395;28;20068;-72
2022/05/26 02:43:33;;;;;;;4.35;1.40;;;;;;;;;;5053351;28;20479;-71
2022/05/26 02:46:11;;;;;;;4.60;1.00;;;;;;;;;;5055800;28;20055;-71
2022/05/26 02:48:56;;;;;;;4.13;0.95;;;;;;;;;;5054951;28;20499;-72
2022/05/26 02:51:33;;;;;;;4.32;0.93;;;;;;;;;;5056916;28;20033;-72
2022/05/26 02:54:06;;;;;;;4.18;1.00;;;;;;;;;;5055143;28;20032;-71
2022/05/26 02:56:51;;;;;;;4.57;1.00;;;;;;;;;;5055417;28;20024;-71
2022/05/26 02:59:28;;;;;;;3.17;0.93;;;;;;;;;;5056901;28;20029;-71
2022/05/26 03:01:58;;;;;;;4.53;0.98;;;;;;;;;;5055630;28;20439;-71
2022/05/26 03:04:44;;;;;;;3.28;1.10;;;;;;;;;;5055860;28;20032;-71
2022/05/26 03:07:13;;;;;;;2.67;1.17;;;;;;;;;;5055415;28;20053;-71
2022/05/26 03:09:40;;;;;;;6.63;1.00;;;;;;;;;;5054587;28;20497;-71
2022/05/26 03:12:19;;;;;;;3.25;1.13;;;;;;;;;;5055271;28;20124;-71
2022/05/26 03:14:46;;;;;;;2.50;1.10;;;;;;;;;;5056441;28;20025;-71
2022/05/26 03:17:12;;;;;;;2.72;1.20;;;;;;;;;;5054929;28;20032;-71
2022/05/26 03:19:38;;;;;;;3.75;1.45;;;;;;;;;;5055511;28;20048;-71
2022/05/26 03:22:04;;;;;;;4.13;1.42;;;;;;;;;;5053690;28;20497;-71
2022/05/26 03:24:30;;;;;;;2.17;1.00;;;;;;;;;;5054463;28;20428;-71
2022/05/26 03:26:56;;;;;;;4.07;1.02;;;;;;;;;;5055038;28;20394;-71
2022/05/26 03:29:22;;;;;;;4.28;1.00;;;;;;;;;;5054865;28;20040;-71
2022/05/26 03:31:48;;;;;;;5.28;1.00;;;;;;;;;;5055263;28;20032;-71
2022/05/26 03:42:29;;;;;;;6.03;1.00;;;;;;;;;;5053382;28;20548;-71
2022/05/26 03:44:56;;;;;;;3.40;0.90;;;;;;;;;;5054851;28;20025;-71
2022/05/26 03:47:22;;;;;;;2.78;0.80;;;;;;;;;;5053936;28;20021;-72
2022/05/26 03:49:49;;;;;;;6.82;1.05;;;;;;;;;;5054420;28;20489;-71
2022/05/26 03:52:15;;;;;;;5.25;1.10;;;;;;;;;;5056184;28;20029;-72
2022/05/26 03:54:41;;;;;;;5.13;1.00;;;;;;;;;;5047108;28;20512;-71
2022/05/26 03:57:08;;;;;;;5.35;1.00;;;;;;;;;;5053168;28;20033;-72
2022/05/26 03:59:34;;;;;;;3.35;1.05;;;;;;;;;;5052775;28;20439;-72
2022/05/26 04:02:01;;;;;;;2.05;0.90;;;;;;;;;;5053946;28;20025;-71
2022/05/26 04:04:27;;;;;;;3.10;0.90;;;;;;;;;;5054493;28;20036;-72
2022/05/26 04:06:53;;;;;;;5.45;1.00;;;;;;;;;;5053283;28;20044;-72
2022/05/26 04:09:19;;;;;;;3.55;1.00;;;;;;;;;;5053069;28;20045;-72
2022/05/26 04:11:45;;;;;;;2.83;1.02;;;;;;;;;;5054718;28;20028;-72
2022/05/26 04:14:11;;;;;;;3.15;1.10;;;;;;;;;;5053649;28;20396;-72
2022/05/26 04:16:37;;;;;;;4.68;1.13;;;;;;;;;;5054740;28;20038;-73
2022/05/26 04:19:03;;;;;;;2.95;1.00;;;;;;;;;;5054405;28;20104;-71
2022/05/26 04:21:30;;;;;;;2.92;1.00;;;;;;;;;;5053250;28;20401;-71
2022/05/26 04:23:56;;;;;;;4.70;1.05;;;;;;;;;;5053872;28;20059;-73
2022/05/26 04:26:22;;;;;;;4.18;1.40;;;;;;;;;;5053945;28;20103;-72
2022/05/26 04:28:48;;;;;;;3.80;0.90;;;;;;;;;;5052662;28;20071;-71
2022/05/26 04:31:14;;;;;;;5.10;1.15;;;;;;;;;;5054990;28;20373;-71
2022/05/26 04:33:40;;;;;;;3.45;1.00;;;;;;;;;;5053546;28;20101;-71
2022/05/26 04:36:07;;;;;;;6.60;1.00;;;;;;;;;;5052336;28;20524;-71
2022/05/26 04:38:33;;;;;;;4.00;1.00;;;;;;;;;;5052357;28;20392;-71
2022/05/26 04:41:00;;;;;;;5.03;1.00;;;;;;;;;;5053728;28;20036;-72
2022/05/26 04:43:26;;;;;;;4.78;1.10;;;;;;;;;;5055354;28;20477;-72
2022/05/26 04:45:52;;;;;;;4.47;1.20;;;;;;;;;;5052483;28;20400;-72
2022/05/26 04:48:21;;;;;;;3.35;0.98;;;;;;;;;;5053823;28;20389;-71
2022/05/26 04:50:48;;;;;;;4.85;1.10;;;;;;;;;;5052892;28;20604;-71
2022/05/26 04:53:14;;;;;;;3.22;1.23;;;;;;;;;;5053179;28;20449;-72
2022/05/26 04:55:40;;;;;;;4.88;1.20;;;;;;;;;;5054764;28;20032;-72
2022/05/26 04:58:07;;;;;;;4.88;1.50;;;;;;;;;;5053408;28;20139;-71
2022/05/26 05:00:33;;;;;;;9.20;1.80;;;;;;;;;;5052410;28;20033;-70
2022/05/26 05:03:00;;;;;;;5.72;1.58;;;;;;;;;;5051629;28;20686;-72
2022/05/26 05:05:26;;;;;;;5.30;1.90;;;;;;;;;;5051998;28;20055;-72
2022/05/26 05:07:52;;;;;;;4.82;1.80;;;;;;;;;;5053064;28;20174;-71
2022/05/26 05:10:18;;;;;;;3.67;1.48;;;;;;;;;;5054922;28;20040;-71
2022/05/26 05:12:44;;;;;;;4.03;1.33;;;;;;;;;;5052050;28;20032;-71
2022/05/26 05:15:15;;;;;;;4.00;1.40;;;;;;;;;;5052936;28;20028;-71
2022/05/26 05:17:41;;;;;;;2.63;1.00;;;;;;;;;;5052093;28;20043;-72
2022/05/26 05:20:07;;;;;;;4.45;1.45;;;;;;;;;;5050537;28;20033;-72
2022/05/26 05:22:45;;;;;;;2.95;1.00;;;;;;;;;;5048751;28;20476;-72
2022/05/26 05:25:22;;;;;;;3.92;1.30;;;;;;;;;;5050155;28;20082;-72
2022/05/26 05:27:56;;;;;;;4.28;1.50;;;;;;;;;;5047952;28;20035;-71
2022/05/26 05:30:27;;;;;;;4.78;1.65;;;;;;;;;;5052531;28;20044;-71
2022/05/26 05:33:03;;;;;;;4.10;1.33;;;;;;;;;;5058450;28;20047;-71
2022/05/26 05:35:34;;;;;;;4.75;1.67;;;;;;;;;;5055927;28;20167;-72
2022/05/26 05:38:01;;;;;;;5.05;1.85;;;;;;;;;;5050000;28;20066;-72
2022/05/26 05:40:27;;;;;;;7.30;1.88;;;;;;;;;;5038691;28;20025;-72
2022/05/26 05:42:53;;;;;;;5.13;1.92;;;;;;;;;;5052004;28;20037;-73
2022/05/26 05:45:20;;;;;;;7.10;2.95;;;;;;;;;;5052145;28;20083;-72
2022/05/26 05:47:46;;;;;;;5.43;2.00;;;;;;;;;;5052520;28;20051;-72
2022/05/26 05:50:12;;;;;;;7.43;2.25;;;;;;;;;;5052646;28;20520;-72
2022/05/26 05:52:38;;;;;;;6.15;1.50;;;;;;;;;;5052568;28;20041;-69
2022/05/26 05:55:04;;;;;;;5.65;1.30;;;;;;;;;;5052390;28;20457;-68
2022/05/26 05:57:31;;;;;;;4.47;1.50;;;;;;;;;;5051582;28;20469;-69
2022/05/26 05:59:57;;;;;;;4.88;1.60;;;;;;;;;;5052412;28;20577;-68
2022/05/26 06:02:23;;;;;;;3.08;1.10;;;;;;;;;;5052377;28;20033;-69
2022/05/26 06:04:50;;;;;;;5.53;1.40;;;;;;;;;;5051998;28;20025;-68
2022/05/26 06:07:20;;;;;;;8.48;1.27;;;;;;;;;;5051915;28;20059;-70
2022/05/26 06:09:47;;;;;;;4.35;1.05;;;;;;;;;;5051626;28;20055;-70
2022/05/26 06:12:13;;;;;;;4.55;1.08;;;;;;;;;;5051984;28;20388;-70
2022/05/26 06:14:40;;;;;;;7.22;1.45;;;;;;;;;;5053810;28;20096;-70
2022/05/26 06:17:09;;;;;;;5.35;1.20;;;;;;;;;;5052168;28;20131;-70
2022/05/26 06:19:36;;;;;;;4.93;1.10;;;;;;;;;;5055335;28;20025;-69
2022/05/26 06:22:10;;;;;;;5.38;1.13;;;;;;;;;;5056154;28;20400;-69
2022/05/26 06:24:39;;;;;;;5.57;1.40;;;;;;;;;;5054982;28;20103;-68
2022/05/26 06:29:49;;;;;;;5.47;1.30;;;;;;;;;;5054124;28;20028;-68
2022/05/26 06:29:52;;;;;;;6.57;1.42;;;;;;;;;;5057126;28;20045;-68
2022/05/26 06:37:50;;;;;;;6.43;1.27;;;;;;;;;;5053961;28;20044;-68
2022/05/26 06:40:16;;;;;;;4.90;1.30;;;;;;;;;;5055530;28;20047;-73
2022/05/26 06:42:44;;;;;;;6.53;1.40;;;;;;;;;;5051254;28;20107;-69
2022/05/26 06:45:11;;;;;;;8.23;1.30;;;;;;;;;;5055560;28;20033;-69
2022/05/26 06:47:37;;;;;;;4.28;1.10;;;;;;;;;;5056093;28;20041;-68
2022/05/26 06:50:04;;;;;;;5.10;1.40;;;;;;;;;;5055789;28;20043;-69
2022/05/26 06:52:30;;;;;;;6.63;1.35;;;;;;;;;;5057155;28;20039;-67
2022/05/26 06:54:57;;;;;;;6.22;1.20;;;;;;;;;;5055381;28;20045;-69
2022/05/26 06:57:23;;;;;;;3.45;1.10;;;;;;;;;;5054689;28;20045;-70
2022/05/26 06:59:50;;;;;;;7.13;1.52;;;;;;;;;;5054760;28;20021;-69
2022/05/26 07:02:16;;;;;;;4.50;1.10;;;;;;;;;;5054715;28;20156;-70
2022/05/26 07:04:43;;;;;;;8.15;1.48;;;;;;;;;;5052626;28;20474;-68
2022/05/26 07:07:09;;;;;;;6.78;1.25;;;;;;;;;;5055297;28;20052;-71
2022/05/26 07:09:35;;;;;;;6.20;1.40;;;;;;;;;;5055848;28;20044;-70
2022/05/26 07:12:01;;;;;;;6.43;1.10;;;;;;;;;;5054985;28;20037;-70
2022/05/26 07:14:28;;;;;;;5.75;1.40;;;;;;;;;;5055677;28;20031;-70
2022/05/26 07:16:55;;;;;;;5.32;1.38;;;;;;;;;;5054978;28;20029;-70
2022/05/26 07:19:21;;;;;;;4.10;1.08;;;;;;;;;;5054929;28;20037;-71
2022/05/26 07:21:48;;;;;;;7.72;1.33;;;;;;;;;;5054314;28;20029;-71
2022/05/26 07:24:16;;;;;;;5.00;1.10;;;;;;;;;;5053665;28;20036;-70
2022/05/26 07:26:42;;;;;;;4.43;1.20;;;;;;;;;;5053534;28;20083;-71
2022/05/26 07:29:08;;;;;;;11.02;1.48;;;;;;;;;;5052047;28;20903;-72
2022/05/26 07:31:34;;;;;;;6.28;1.50;;;;;;;;;;5053286;28;20032;-72
2022/05/26 07:34:01;;;;;;;9.48;1.33;;;;;;;;;;5055272;28;20024;-72
2022/05/26 07:41:59;;;;;;;8.18;1.65;;;;;;;;;;5055095;28;20035;-69
2022/05/26 07:44:26;;;;;;;12.55;1.40;;;;;;;;;;5054909;28;20025;-69
2022/05/26 07:46:52;;;;;;;6.03;1.40;;;;;;;;;;5054534;28;20036;-69
2022/05/26 07:49:18;;;;;;;6.82;1.25;;;;;;;;;;5054552;28;20036;-68
2022/05/26 07:51:45;;;;;;;7.53;1.40;;;;;;;;;;5052174;28;20035;-68
2022/05/26 07:54:11;;;;;;;5.25;1.13;;;;;;;;;;5052133;28;20029;-69
2022/05/26 07:56:38;;;;;;;4.68;1.05;;;;;;;;;;5051422;28;20043;-68
2022/05/26 07:59:04;;;;;;;7.22;1.20;;;;;;;;;;5052430;28;21015;-67
2022/05/26 08:01:31;;;;;;;3.53;1.15;;;;;;;;;;5045166;28;20034;-66
2022/05/26 08:03:57;;;;;;;8.50;1.75;;;;;;;;;;5047172;28;20465;-67
2022/05/26 08:06:23;;;;;;;4.97;1.10;;;;;;;;;;5047622;28;20517;-67
2022/05/26 08:08:50;;;;;;;6.20;1.38;;;;;;;;;;5044855;28;20032;-66
2022/05/26 08:11:16;;;;;;;6.10;1.30;;;;;;;;;;5045808;28;20031;-67
2022/05/26 08:13:42;;;;;;;5.47;1.10;;;;;;;;;;5046541;28;20520;-67
2022/05/26 08:16:08;;;;;;;5.97;1.13;;;;;;;;;;5045218;28;20029;-67
2022/05/26 08:18:35;;;;;;;5.07;1.10;;;;;;;;;;5045631;28;20369;-67
2022/05/26 08:21:13;;;;;;;8.68;1.23;;;;;;;;;;5042125;28;20029;-67
2022/05/26 08:23:40;;;;;;;90.18;6.07;;;;;;;;;;5045525;28;20047;-68
2022/05/26 08:26:07;;;;;;;5.93;1.20;;;;;;;;;;5045234;28;20119;-67
2022/05/26 08:28:33;;;;;;;3.20;1.10;;;;;;;;;;5045270;28;20025;-68
2022/05/26 08:31:00;;;;;;;5.82;1.50;;;;;;;;;;5046916;28;20044;-68
2022/05/26 08:33:26;;;;;;;9.82;3.33;;;;;;;;;;5046901;28;20444;-67
2022/05/26 08:36:06;;;;;;;11.38;1.63;;;;;;;;;;5044478;28;20551;-68
2022/05/26 08:38:33;;;;;;;4.45;1.25;;;;;;;;;;5040704;28;20401;-68
2022/05/26 08:40:59;;;;;;;3.70;1.10;;;;;;;;;;5046775;28;20035;-69
2022/05/26 08:43:30;;;;;;;7.60;1.33;;;;;;;;;;5044152;28;20068;-68
2022/05/26 08:45:56;;;;;;;5.47;1.20;;;;;;;;;;5046634;28;20033;-68
2022/05/26 08:48:31;;;;;;;7.05;1.20;;;;;;;;;;5045957;28;20775;-69
2022/05/26 08:50:58;;;;;;;5.20;1.10;;;;;;;;;;5044139;28;20044;-68
2022/05/26 08:53:28;;;;;;;9.55;1.40;;;;;;;;;;5044617;28;20033;-68
2022/05/26 08:55:55;;;;;;;6.85;1.50;;;;;;;;;;5045080;28;20489;-68
2022/05/26 08:58:32;;;;;;;8.00;1.55;;;;;;;;;;5045427;28;20041;-69
2022/05/26 09:01:01;;;;;;;7.60;1.75;;;;;;;;;;5049134;28;20025;-68
2022/05/26 09:03:34;;;;;;;6.55;1.42;;;;;;;;;;5048411;28;20029;-69
2022/05/26 09:06:03;;;;;;;9.52;1.42;;;;;;;;;;5044923;28;20025;-68
2022/05/26 09:14:05;;;;;;;11.07;1.27;;;;;;;;;;5045272;28;20099;-69
2022/05/26 09:16:32;;;;;;;5.30;1.15;;;;;;;;;;5045263;28;20489;-69
2022/05/26 09:19:12;;;;;;;7.50;1.48;;;;;;;;;;5045374;28;20116;-69
2022/05/26 09:21:39;;;;;;;6.20;1.58;;;;;;;;;;5047644;28;20412;-69
2022/05/26 09:24:25;;;;;;;12.65;1.55;;;;;;;;;;5044100;28;20581;-69
2022/05/26 09:26:55;;;;;;;5.60;1.55;;;;;;;;;;5044599;28;20044;-70
2022/05/26 09:29:40;;;;;;;4.35;1.60;;;;;;;;;;5044392;28;20029;-69
2022/05/26 09:32:06;;;;;;;7.80;1.48;;;;;;;;;;5046930;28;20032;-70
2022/05/26 09:34:34;;;;;;;10.63;1.70;;;;;;;;;;5049129;28;20025;-69
2022/05/26 09:37:03;;;;;;;7.43;1.55;;;;;;;;;;5050011;28;20028;-68
2022/05/26 09:39:37;;;;;;;6.22;1.20;;;;;;;;;;5050075;28;20033;-68
2022/05/26 09:42:22;;;;;;;6.78;1.40;;;;;;;;;;5048299;28;20033;-69
2022/05/26 09:44:58;;;;;;;6.18;1.40;;;;;;;;;;5047320;28;20047;-68
2022/05/26 09:47:24;;;;;;;7.47;1.92;;;;;;;;;;5048427;28;20017;-69
2022/05/26 09:49:51;;;;;;;7.30;1.63;;;;;;;;;;5054600;28;20048;-69
2022/05/26 09:52:23;;;;;;;7.18;1.40;;;;;;;;;;5048087;28;20134;-69
2022/05/26 09:55:04;;;;;;;5.45;1.55;;;;;;;;;;5054608;28;20021;-69
2022/05/26 09:57:30;;;;;;;5.93;1.20;;;;;;;;;;5049876;28;20501;-70
2022/05/26 09:59:56;;;;;;;4.82;1.27;;;;;;;;;;5054085;28;20471;-68
2022/05/26 10:02:43;;;;;;;7.82;2.05;;;;;;;;;;5051842;28;20028;-68
2022/05/26 10:05:18;;;;;;;8.55;1.40;;;;;;;;;;5049242;28;20082;-69
2022/05/26 10:07:44;;;;;;;21.90;2.30;;;;;;;;;;5052818;28;20045;-68
2022/05/26 10:10:16;;;;;;;10.70;1.70;;;;;;;;;;5051807;28;20037;-69
2022/05/26 10:12:42;;;;;;;6.55;1.50;;;;;;;;;;5047180;28;20554;-69
2022/05/26 10:15:12;;;;;;;13.95;1.73;;;;;;;;;;5052306;28;20037;-68
2022/05/26 10:17:47;;;;;;;10.52;1.58;;;;;;;;;;5053539;28;20120;-68
2022/05/26 10:20:20;;;;;;;8.88;1.42;;;;;;;;;;5053295;28;20415;-68
2022/05/26 10:22:47;;;;;;;7.95;1.50;;;;;;;;;;5053488;28;20025;-69
2022/05/26 10:25:32;;;;;;;5.28;1.40;;;;;;;;;;5052024;28;20198;-68
2022/05/26 10:28:04;;;;;;;8.90;2.33;;;;;;;;;;5049534;28;20033;-68
2022/05/26 10:30:34;;;;;;;7.40;1.40;;;;;;;;;;5049016;28;20064;-68
2022/05/26 10:33:08;;;;;;;5.88;1.40;;;;;;;;;;5051129;28;20074;-68
2022/05/26 10:35:52;;;;;;;8.95;1.30;;;;;;;;;;5052074;28;20151;-68
2022/05/26 10:38:37;;;;;;;7.63;1.60;;;;;;;;;;5045398;28;20017;-68
2022/05/26 10:41:22;;;;;;;5.68;1.30;;;;;;;;;;5051086;28;20100;-71
2022/05/26 10:44:05;;;;;;;5.25;1.30;;;;;;;;;;5050996;28;20063;-73
2022/05/26 10:46:34;;;;;;;11.90;1.73;;;;;;;;;;5041932;28;20051;-73
2022/05/26 10:49:16;;;;;;;20.58;2.50;;;;;;;;;;5051409;28;20025;-76
2022/05/26 10:51:49;;;;;;;10.98;1.77;;;;;;;;;;5046614;28;20054;-73
2022/05/26 10:54:35;;;;;;;12.07;1.80;;;;;;;;;;5050241;28;20044;-74
2022/05/26 10:57:11;;;;;;;6.90;1.50;;;;;;;;;;5050654;28;20067;-74
2022/05/26 10:59:45;;;;;;;4.00;1.40;;;;;;;;;;5050503;28;20021;-75
2022/05/26 11:02:23;;;;;;;4.28;1.60;;;;;;;;;;5052082;28;20493;-73
2022/05/26 11:05:08;;;;;;;3.28;1.10;;;;;;;;;;5050501;28;20025;-74
2022/05/26 11:07:54;;;;;;;7.90;1.40;;;;;;;;;;5052729;28;20049;-75
2022/05/26 11:10:31;;;;;;;8.30;1.73;;;;;;;;;;5039223;28;20032;-74
2022/05/26 11:13:06;;;;;;;5.28;1.17;;;;;;;;;;5051688;28;20040;-75
2022/05/26 11:18:31;;;;;;;3.85;1.10;;;;;;;;;;5056656;28;20452;-77
2022/05/26 11:20:58;;;;;;;4.78;1.40;;;;;;;;;;5052405;28;20025;-73
2022/05/26 11:23:26;;;;;;;5.07;1.30;;;;;;;;;;5054601;28;20020;-74
2022/05/26 11:26:00;;;;;;;3.38;1.10;;;;;;;;;;5054902;28;20025;-74
2022/05/26 11:28:40;;;;;;;4.43;1.00;;;;;;;;;;5054409;28;20035;-73
2022/05/26 11:36:40;;;;;;;4.60;1.50;;;;;;;;;;5052069;28;20052;-73
2022/05/26 11:39:09;;;;;;;3.75;1.27;;;;;;;;;;5054093;28;20025;-75
2022/05/26 11:41:37;;;;;;;7.00;1.40;;;;;;;;;;5054276;28;20090;-73
2022/05/26 11:44:07;;;;;;;7.78;1.52;;;;;;;;;;5048599;28;20021;-72
2022/05/26 11:46:43;;;;;;;5.18;1.30;;;;;;;;;;5047383;28;20075;-73
2022/05/26 11:49:11;;;;;;;4.65;1.20;;;;;;;;;;5049721;28;20417;-73
2022/05/26 11:51:42;;;;;;;5.18;1.40;;;;;;;;;;5050567;28;20098;-73
2022/05/26 11:54:31;;;;;;;5.55;1.38;;;;;;;;;;5051908;28;20017;-73
2022/05/26 11:56:57;;;;;;;7.07;1.48;;;;;;;;;;5047406;28;20025;-74
2022/05/26 11:59:47;;;;;;;8.20;1.50;;;;;;;;;;5051652;28;20029;-74
2022/05/26 12:02:16;;;;;;;7.53;1.40;;;;;;;;;;5039653;28;20051;-74
2022/05/26 12:04:45;;;;;;;4.55;1.40;;;;;;;;;;5047584;28;20546;-73
2022/05/26 12:07:18;;;;;;;4.72;1.30;;;;;;;;;;5046915;28;20782;-74
2022/05/26 12:09:50;;;;;;;5.82;1.50;;;;;;;;;;5050373;28;20452;-73
2022/05/26 12:12:16;;;;;;;6.55;1.98;;;;;;;;;;5046499;28;20041;-73
2022/05/26 12:14:55;;;;;;;4.25;1.63;;;;;;;;;;5044632;28;20392;-72
2022/05/26 12:17:36;;;;;;;9.95;1.85;;;;;;;;;;5045358;28;20028;-70
2022/05/26 12:20:11;;;;;;;4.00;1.42;;;;;;;;;;5033049;28;20036;-72
2022/05/26 12:22:38;;;;;;;8.57;1.60;;;;;;;;;;5037577;28;20849;-72
2022/05/26 12:25:07;;;;;;;5.38;1.52;;;;;;;;;;5042559;28;20021;-70
2022/05/26 12:27:53;;;;;;;4.97;1.67;;;;;;;;;;5045163;28;20070;-71
2022/05/26 12:30:35;;;;;;;6.20;1.45;;;;;;;;;;5043073;28;20098;-71
2022/05/26 12:33:21;;;;;;;7.20;1.45;;;;;;;;;;5041446;28;20481;-70
2022/05/26 12:35:57;;;;;;;3.97;1.40;;;;;;;;;;5041112;28;20509;-71
2022/05/26 12:38:37;;;;;;;4.53;1.58;;;;;;;;;;5043106;28;20025;-72
2022/05/26 12:41:15;;;;;;;8.52;1.85;;;;;;;;;;5045068;28;20720;-73
2022/05/26 12:43:53;;;;;;;5.40;1.70;;;;;;;;;;5031540;28;20029;-72
2022/05/26 12:46:23;;;;;;;4.05;1.08;;;;;;;;;;5045176;28;20023;-73
2022/05/26 12:48:55;;;;;;;5.43;1.45;;;;;;;;;;5047866;28;20103;-73
2022/05/26 12:51:21;;;;;;;7.05;1.73;;;;;;;;;;5046346;28;20056;-71
2022/05/26 12:53:52;;;;;;;5.93;1.50;;;;;;;;;;5042858;28;20471;-71
2022/05/26 12:56:29;;;;;;;6.00;1.42;;;;;;;;;;5044466;28;20021;-71
2022/05/26 12:58:57;;;;;;;3.92;1.27;;;;;;;;;;5043040;28;20033;-73
2022/05/26 13:01:25;;;;;;;4.97;1.42;;;;;;;;;;5045789;28;20131;-71
2022/05/26 13:03:54;;;;;;;7.50;1.42;;;;;;;;;;5041695;28;20021;-70
2022/05/26 13:06:24;;;;;;;5.13;1.33;;;;;;;;;;5042586;28;20585;-71
2022/05/26 13:08:56;;;;;;;5.65;1.58;;;;;;;;;;5045570;28;20086;-70
2022/05/26 13:11:27;;;;;;;7.78;1.60;;;;;;;;;;5046366;28;20059;-70
2022/05/26 13:14:02;;;;;;;3.80;1.33;;;;;;;;;;5046444;28;20588;-72
2022/05/26 13:16:32;;;;;;;7.20;1.42;;;;;;;;;;5044931;28;20064;-74
2022/05/26 13:19:17;;;;;;;6.63;1.70;;;;;;;;;;5050112;28;20036;-72
2022/05/26 13:21:48;;;;;;;8.45;1.90;;;;;;;;;;5048615;28;20405;-71
2022/05/26 13:24:33;;;;;;;6.60;1.67;;;;;;;;;;5048215;28;20041;-72
2022/05/26 13:26:59;;;;;;;5.45;1.50;;;;;;;;;;5039058;28;20060;-71
2022/05/26 13:29:27;;;;;;;5.38;1.65;;;;;;;;;;5043138;28;20044;-71
2022/05/26 13:34:47;;;;;;;7.03;1.52;;;;;;;;;;5042059;28;20479;-75
2022/05/26 13:37:20;;;;;;;6.35;1.50;;;;;;;;;;5028867;28;20029;-74
2022/05/26 13:39:46;;;;;;;6.95;2.10;;;;;;;;;;5057827;28;20485;-67
2022/05/26 13:42:14;;;;;;;5.28;1.60;;;;;;;;;;5038653;28;20029;-67
2022/05/26 13:44:43;;;;;;;7.15;1.65;;;;;;;;;;5047540;28;20033;-67
2022/05/26 13:47:14;;;;;;;6.30;1.48;;;;;;;;;;5027200;28;20041;-69
2022/05/26 13:49:45;;;;;;;7.50;1.77;;;;;;;;;;5046314;28;20048;-69
2022/05/26 13:52:17;;;;;;;6.03;1.83;;;;;;;;;;5046045;28;20145;-69
2022/05/26 13:54:57;;;;;;;6.05;1.55;;;;;;;;;;5046166;28;20501;-68
2022/05/26 13:58:03;;;;;;;6.30;1.73;;;;;;;;;;5052195;28;20106;-67
2022/05/26 14:00:37;;;;;;;6.43;1.60;;;;;;;;;;5002936;28;20413;-67
2022/05/26 14:03:23;;;;;;;6.93;1.60;;;;;;;;;;5008888;28;20081;-68
2022/05/26 14:06:08;;;;;;;4.05;1.60;;;;;;;;;;4983924;28;20517;-68
2022/05/26 14:08:48;;;;;;;6.53;1.75;;;;;;;;;;5005414;28;20550;-69
2022/05/26 14:11:28;;;;;;;4.65;1.40;;;;;;;;;;5003295;28;20057;-70
2022/05/26 14:13:54;;;;;;;6.10;1.70;;;;;;;;;;4988225;28;20085;-68
2022/05/26 14:16:22;;;;;;;7.55;1.90;;;;;;;;;;4991788;28;20104;-67
2022/05/26 14:19:03;;;;;;;7.55;1.80;;;;;;;;;;4992563;28;20164;-68
2022/05/26 14:21:36;;;;;;;7.78;1.70;;;;;;;;;;4987397;28;20514;-68
2022/05/26 14:24:04;;;;;;;4.50;1.67;;;;;;;;;;5007196;28;20067;-68
2022/05/26 14:26:30;;;;;;;5.25;1.60;;;;;;;;;;5005452;28;20089;-68
2022/05/26 14:28:57;;;;;;;8.68;1.80;;;;;;;;;;5004740;28;20045;-68
2022/05/26 14:31:26;;;;;;;7.32;2.00;;;;;;;;;;4986954;28;20110;-69
2022/05/26 14:34:01;;;;;;;7.93;1.90;;;;;;;;;;4997342;28;20088;-68
2022/05/26 14:36:44;;;;;;;9.80;2.20;;;;;;;;;;5029419;28;20029;-69
2022/05/26 14:39:14;;;;;;;4.07;1.70;;;;;;;;;;5033061;28;20180;-68
2022/05/26 14:41:43;;;;;;;7.53;1.95;;;;;;;;;;5031109;28;20030;-69
2022/05/26 14:44:11;;;;;;;8.13;2.00;;;;;;;;;;5033125;28;20513;-69
2022/05/26 14:46:38;;;;;;;7.60;1.80;;;;;;;;;;5036489;28;20060;-68
2022/05/26 14:49:04;;;;;;;6.20;2.47;;;;;;;;;;5033227;28;20040;-69
2022/05/26 14:51:32;;;;;;;11.52;2.10;;;;;;;;;;5034466;28;20041;-69
2022/05/26 14:56:50;;;;;;;8.48;2.17;;;;;;;;;;5032468;28;20084;-68
2022/05/26 14:59:20;;;;;;;5.80;1.60;;;;;;;;;;5032969;28;20021;-68
2022/05/26 15:01:49;;;;;;;6.95;1.77;;;;;;;;;;5023750;28;20025;-68
2022/05/26 15:04:19;;;;;;;6.53;1.60;;;;;;;;;;5017955;28;20026;-71
2022/05/26 15:06:50;;;;;;;5.07;1.40;;;;;;;;;;5040211;28;20049;-71
2022/05/26 15:09:25;;;;;;;4.47;1.60;;;;;;;;;;5052348;28;20082;-70
2022/05/26 15:11:53;;;;;;;7.13;2.38;;;;;;;;;;5051528;28;20117;-69
2022/05/26 15:14:23;;;;;;;6.28;1.40;;;;;;;;;;5051632;28;20053;-69
2022/05/26 15:16:52;;;;;;;4.85;1.40;;;;;;;;;;5051517;28;20118;-68
2022/05/26 15:19:26;;;;;;;4.45;1.60;;;;;;;;;;5053550;28;20111;-70
2022/05/26 15:21:56;;;;;;;6.13;1.67;;;;;;;;;;5052848;28;20029;-68
2022/05/26 15:24:24;;;;;;;5.88;1.65;;;;;;;;;;5050141;28;20029;-74
2022/05/26 15:27:06;;;;;;;5.88;1.70;;;;;;;;;;5047962;28;20060;-74
2022/05/26 15:29:46;;;;;;;6.33;1.50;;;;;;;;;;5053001;28;20041;-74
2022/05/26 15:32:34;;;;;;;8.10;1.52;;;;;;;;;;5056431;28;20064;-75
2022/05/26 15:35:12;;;;;;;7.22;1.70;;;;;;;;;;5040756;28;20435;-74
2022/05/26 15:37:44;;;;;;;4.45;1.40;;;;;;;;;;5055046;28;20033;-75
2022/05/26 15:40:12;;;;;;;10.25;1.70;;;;;;;;;;5054820;28;20040;-72
2022/05/26 15:42:38;;;;;;;4.88;1.42;;;;;;;;;;5053275;28;20122;-74
2022/05/26 15:45:09;;;;;;;4.97;1.27;;;;;;;;;;5053594;28;20033;-75